Weather at Oxford (Kidlington) Airport

Public forecast

Using degrees Celsius for public forecast. Weather courtesy of forecast.io.

Current aviation weather report (METAR) for Oxford (Kidlington) Airport

Report is more than 6 hours old.

Retrieved 2021/10/20 21:20 UTC (8 hours ago):

EGTK 202120Z 35009KT 5000 RA SCT031 BKN041 11/10 Q0989

Closest aviation forecast (TAF) to Oxford (Kidlington) Airport

Closest forecast is RAF Brize Norton, 11.1 nm (20.5 km) WSW. Retrieved 2021-10-21 03:45 UTC (1 hour ago):

TAF EGVN 210137Z 2103/2203 28010KT CAVOK PROB40 TEMPO 2103/2107 BKN020 PROB30 TEMPO 2104/2106 32015G25KT